createdAt,value
2022-10-18T00:03:26.846Z,78
2022-10-18T00:08:28.574Z,77
2022-10-18T00:13:30.365Z,77
2022-10-18T00:18:31.652Z,78
2022-10-18T00:23:33.684Z,77
2022-10-18T00:28:35.308Z,78
2022-10-18T00:33:36.418Z,78
2022-10-18T00:38:38.327Z,78
2022-10-18T00:43:39.721Z,79
2022-10-18T00:48:41.874Z,79
2022-10-18T00:53:43.487Z,78
2022-10-18T00:58:44.780Z,78
2022-10-18T01:03:46.352Z,79
2022-10-18T01:08:47.636Z,79
2022-10-18T01:13:48.987Z,80
2022-10-18T01:18:50.362Z,81
2022-10-18T01:23:52.244Z,80
2022-10-18T01:28:53.711Z,81
2022-10-18T01:33:55.046Z,80
2022-10-18T01:38:56.274Z,80
2022-10-18T01:43:57.559Z,80
2022-10-18T01:48:58.914Z,81
2022-10-18T01:54:00.223Z,81
2022-10-18T01:59:01.720Z,81
2022-10-18T02:04:03.762Z,81
2022-10-18T02:09:05.790Z,81
2022-10-18T02:14:07.775Z,81
2022-10-18T02:19:09.270Z,81
2022-10-18T02:24:11.104Z,81
2022-10-18T02:29:13.340Z,81
2022-10-18T02:34:15.465Z,81
2022-10-18T02:39:17.351Z,81
2022-10-18T02:44:19.493Z,80
2022-10-18T02:49:21.332Z,81
2022-10-18T02:54:22.858Z,81
2022-10-18T02:59:24.924Z,80
2022-10-18T03:09:28.356Z,81
2022-10-18T03:14:30.363Z,81
2022-10-18T03:19:32.162Z,81
2022-10-18T03:24:33.924Z,81
2022-10-18T03:29:35.902Z,81
2022-10-18T03:34:37.501Z,82
2022-10-18T03:39:39.413Z,82
2022-10-18T03:44:40.708Z,82
2022-10-18T03:49:42.072Z,82
2022-10-18T03:54:43.755Z,82
2022-10-18T03:59:45.901Z,83
2022-10-18T04:04:47.111Z,82
2022-10-18T04:09:48.609Z,83
2022-10-18T04:14:50.177Z,83
2022-10-18T04:19:51.619Z,82
2022-10-18T04:24:53.660Z,83
2022-10-18T04:29:55.752Z,83
2022-10-18T04:34:57.056Z,82
2022-10-18T04:39:58.574Z,83
2022-10-18T04:45:00.581Z,83
2022-10-18T04:50:01.995Z,83
2022-10-18T04:55:03.586Z,82
2022-10-18T05:00:05.338Z,82
2022-10-18T05:05:09.146Z,83
2022-10-18T05:10:09.119Z,83
2022-10-18T05:15:10.805Z,83
2022-10-18T05:25:14.468Z,82
2022-10-18T05:30:15.765Z,83
2022-10-18T05:35:17.739Z,83
2022-10-18T05:40:19.830Z,82
2022-10-18T05:45:21.173Z,82
2022-10-18T05:50:22.767Z,82
2022-10-18T05:55:24.114Z,82
2022-10-18T06:00:25.527Z,82
2022-10-18T06:05:27.349Z,81
2022-10-18T06:10:29.196Z,80
2022-10-18T06:15:30.741Z,80
2022-10-18T06:20:32.387Z,79
2022-10-18T06:25:34.254Z,79
2022-10-18T06:30:36.285Z,79
2022-10-18T06:35:37.557Z,78
2022-10-18T06:40:38.858Z,78
2022-10-18T06:45:40.625Z,79
2022-10-18T06:50:41.846Z,79
2022-10-18T06:55:43.460Z,79
2022-10-18T07:00:45.065Z,80
2022-10-18T07:05:46.679Z,77
2022-10-18T07:10:48.209Z,77
2022-10-18T07:15:49.410Z,77
2022-10-18T07:20:50.716Z,77
2022-10-18T07:25:52.583Z,77
2022-10-18T07:30:54.572Z,76
2022-10-18T07:35:55.978Z,75
2022-10-18T07:40:58.115Z,74
2022-10-18T07:46:00.019Z,73
2022-10-18T07:51:01.742Z,73
2022-10-18T07:56:05.773Z,71
2022-10-18T08:01:04.982Z,70
2022-10-18T08:06:06.644Z,69
2022-10-18T08:11:07.900Z,68
2022-10-18T08:16:09.239Z,67
2022-10-18T08:21:11.059Z,67
2022-10-18T08:26:13.040Z,65
2022-10-18T08:31:14.810Z,64
2022-10-18T08:36:16.710Z,63
2022-10-18T08:41:18.420Z,60
2022-10-18T08:46:19.780Z,55
2022-10-18T08:51:20.990Z,53
2022-10-18T08:56:22.151Z,49
2022-10-18T09:01:23.406Z,46
2022-10-18T09:06:24.810Z,44
2022-10-18T09:11:26.718Z,43
2022-10-18T09:16:28.260Z,41
2022-10-18T09:21:29.691Z,41
2022-10-18T09:26:31.498Z,39
2022-10-18T09:31:32.978Z,37
2022-10-18T09:36:34.512Z,34
2022-10-18T09:41:36.110Z,35
2022-10-18T09:46:38.165Z,36
2022-10-18T09:51:39.713Z,36
2022-10-18T09:56:41.888Z,38
2022-10-18T10:06:44.233Z,39
2022-10-18T10:16:47.333Z,40
2022-10-18T10:21:48.648Z,38
2022-10-18T10:41:54.865Z,32
2022-10-18T10:46:56.903Z,30
2022-10-18T10:52:02.581Z,30
2022-10-18T10:57:00.021Z,30
2022-10-18T11:02:01.822Z,30
2022-10-18T11:07:03.861Z,29
2022-10-18T11:17:08.355Z,29
2022-10-18T11:22:09.682Z,30
2022-10-18T11:27:11.652Z,31
2022-10-18T11:32:13.819Z,33
2022-10-18T11:37:27.555Z,34
2022-10-18T11:42:17.052Z,35
2022-10-18T11:47:18.403Z,36
2022-10-18T11:47:24.732Z,36
2022-10-18T11:52:26.523Z,37
2022-10-18T11:57:28.614Z,39
2022-10-18T12:02:30.694Z,39
2022-10-18T12:07:32.547Z,40
2022-10-18T12:12:34.383Z,41
2022-10-18T12:17:51.081Z,41
2022-10-18T12:22:36.730Z,42
2022-10-18T12:27:38.857Z,42
2022-10-18T12:32:40.250Z,41
2022-10-18T12:37:41.443Z,41
2022-10-18T12:42:43.284Z,41
2022-10-18T12:47:44.624Z,42
2022-10-18T12:52:46.402Z,42
2022-10-18T12:57:47.603Z,42
2022-10-18T13:02:49.089Z,42
2022-10-18T13:07:50.840Z,42
2022-10-18T13:12:52.353Z,42
2022-10-18T13:17:53.868Z,42
2022-10-18T13:22:55.923Z,43
2022-10-18T13:27:57.429Z,44
2022-10-18T13:32:59.444Z,43
2022-10-18T13:38:00.871Z,43
2022-10-18T13:43:01.924Z,42
2022-10-18T13:48:03.733Z,42
2022-10-18T13:53:05.042Z,43
2022-10-18T13:58:06.420Z,43
2022-10-18T14:03:12.775Z,43
2022-10-18T14:08:10.578Z,44
2022-10-18T14:13:10.886Z,44
2022-10-18T14:18:12.672Z,44
2022-10-18T14:23:14.358Z,46
2022-10-18T14:28:16.263Z,46
2022-10-18T14:33:17.995Z,46
2022-10-18T14:38:19.224Z,46
2022-10-18T14:43:20.529Z,47
2022-10-18T14:48:21.989Z,47
2022-10-18T14:53:23.257Z,47
2022-10-18T14:58:25.279Z,48
2022-10-18T15:03:27.354Z,49
2022-10-18T15:08:29.357Z,49
2022-10-18T15:13:30.902Z,49
2022-10-18T15:18:32.139Z,49
2022-10-18T15:23:33.611Z,50
2022-10-18T15:28:35.787Z,50
2022-10-18T15:33:37.139Z,51
2022-10-18T15:38:39.331Z,54
2022-10-18T15:43:40.947Z,55
2022-10-18T15:48:42.980Z,58
2022-10-18T15:53:44.163Z,57
2022-10-18T15:58:45.679Z,59
2022-10-18T16:03:47.033Z,58
2022-10-18T16:08:48.958Z,59
2022-10-18T16:13:50.739Z,59
2022-10-18T16:18:52.512Z,59
2022-10-18T16:23:53.968Z,60
2022-10-18T16:28:55.310Z,60
2022-10-18T16:33:57.130Z,61
2022-10-18T16:38:58.721Z,61
2022-10-18T16:44:00.375Z,62
2022-10-18T16:49:02.212Z,62
2022-10-18T16:54:04.194Z,62
2022-10-18T16:59:05.723Z,62
2022-10-18T17:04:07.938Z,63
2022-10-18T17:09:09.457Z,63
2022-10-18T17:14:10.666Z,64
2022-10-18T17:19:12.030Z,64
2022-10-18T17:24:14.122Z,64
2022-10-18T17:29:16.026Z,65
2022-10-18T17:34:21.142Z,65
2022-10-18T17:39:18.888Z,66
2022-10-18T17:44:20.874Z,66
2022-10-18T17:49:22.206Z,67
2022-10-18T17:54:24.070Z,67
2022-10-18T17:59:25.949Z,68
2022-10-18T18:04:27.436Z,68
2022-10-18T18:09:29.179Z,69
2022-10-18T18:14:30.577Z,69
2022-10-18T18:19:32.552Z,69
2022-10-18T18:24:34.552Z,70
2022-10-18T18:29:35.863Z,71
2022-10-18T18:34:37.937Z,70
2022-10-18T18:39:39.495Z,71
2022-10-18T18:44:40.787Z,72
2022-10-18T18:49:42.391Z,73
2022-10-18T18:54:44.423Z,74
2022-10-18T18:59:46.214Z,73
2022-10-18T19:04:48.078Z,74
2022-10-18T19:09:49.999Z,74
2022-10-18T19:14:51.405Z,75
2022-10-18T19:19:53.410Z,75
2022-10-18T19:24:54.614Z,75
2022-10-18T19:29:56.041Z,75
2022-10-18T19:34:57.848Z,76
2022-10-18T19:39:59.506Z,76
2022-10-18T19:45:00.946Z,76
2022-10-18T19:50:02.206Z,76
2022-10-18T19:55:03.512Z,77
2022-10-18T20:00:06.753Z,77
2022-10-18T20:05:07.302Z,78
2022-10-18T20:10:09.336Z,78
2022-10-18T20:15:11.191Z,78
2022-10-18T20:20:12.866Z,78
2022-10-18T20:25:14.359Z,78
2022-10-18T20:30:16.137Z,78
2022-10-18T20:35:17.857Z,79
2022-10-18T20:40:19.804Z,78
2022-10-18T20:45:21.024Z,78
2022-10-18T20:50:22.681Z,79
2022-10-18T20:55:24.098Z,79
2022-10-18T21:00:25.852Z,79
2022-10-18T21:05:27.194Z,80
2022-10-18T21:10:28.665Z,79
2022-10-18T21:15:30.531Z,80
2022-10-18T21:20:32.340Z,80
2022-10-18T21:25:34.264Z,80
2022-10-18T21:30:36.297Z,80
2022-10-18T21:35:37.618Z,81
2022-10-18T21:40:39.512Z,81
2022-10-18T21:45:41.450Z,82
2022-10-18T21:50:43.246Z,83
2022-10-18T21:55:44.939Z,83
2022-10-18T22:15:51.188Z,82
2022-10-18T22:20:52.602Z,82
2022-10-18T22:25:54.136Z,82
2022-10-18T22:30:55.544Z,82
2022-10-18T22:35:57.245Z,82
2022-10-18T22:40:58.877Z,81
2022-10-18T22:46:01.059Z,80
2022-10-18T22:51:02.439Z,81
2022-10-18T22:56:03.895Z,81
2022-10-18T23:01:05.575Z,80
2022-10-18T23:06:07.314Z,81
2022-10-18T23:11:09.106Z,80
2022-10-18T23:16:11.197Z,80
2022-10-18T23:21:13.258Z,80
2022-10-18T23:26:14.519Z,80
2022-10-18T23:31:16.621Z,80
2022-10-18T23:36:17.812Z,80
2022-10-18T23:41:19.008Z,81
2022-10-18T23:46:21.091Z,81
2022-10-18T23:51:22.642Z,82
2022-10-18T23:56:24.553Z,83
